createdAt,value
2022-08-29T00:01:40.566Z,40.17
2022-08-29T00:04:08.793Z,40.32
2022-08-29T00:06:36.950Z,40.12
2022-08-29T00:09:05.512Z,39.99
2022-08-29T00:11:33.741Z,39.97
2022-08-29T00:14:03.069Z,40.21
2022-08-29T00:16:31.367Z,39.92
2022-08-29T00:18:59.349Z,40.28
2022-08-29T00:21:27.516Z,40.34
2022-08-29T00:23:55.476Z,40.38
2022-08-29T00:26:23.520Z,39.95
2022-08-29T00:28:54.616Z,40.37
2022-08-29T00:31:24.021Z,40.16
2022-08-29T00:33:51.984Z,40.32
2022-08-29T00:36:19.990Z,40.40
2022-08-29T00:38:50.640Z,39.97
2022-08-29T00:41:18.753Z,40.01
2022-08-29T00:43:46.818Z,40.48
2022-08-29T00:46:35.889Z,40.38
2022-08-29T00:49:09.912Z,40.43
2022-08-29T00:51:38.117Z,39.99
2022-08-29T00:54:09.721Z,40.48
2022-08-29T00:56:39.244Z,40.43
2022-08-29T00:59:11.887Z,40.21
2022-08-29T01:01:41.406Z,40.24
2022-08-29T01:04:15.812Z,40.06
2022-08-29T01:06:53.225Z,40.08
2022-08-29T01:09:22.051Z,40.22
2022-08-29T01:12:08.122Z,40.07
2022-08-29T01:14:38.711Z,39.96
2022-08-29T01:17:11.013Z,39.93
2022-08-29T01:19:46.101Z,39.71
2022-08-29T01:22:44.309Z,39.96
2022-08-29T01:25:17.281Z,40.04
2022-08-29T01:27:50.298Z,39.75
2022-08-29T01:30:18.406Z,39.83
2022-08-29T01:32:46.433Z,40.04
2022-08-29T01:35:14.444Z,39.95
2022-08-29T01:37:44.653Z,39.74
2022-08-29T01:40:15.381Z,40.05
2022-08-29T01:42:44.397Z,39.69
2022-08-29T01:45:12.613Z,39.73
2022-08-29T01:47:41.251Z,39.61
2022-08-29T01:50:12.773Z,39.80
2022-08-29T01:52:41.977Z,39.43
2022-08-29T01:55:10.509Z,39.72
2022-08-29T01:57:40.973Z,39.40
2022-08-29T02:00:10.953Z,39.41
2022-08-29T02:02:41.107Z,39.36
2022-08-29T02:05:10.012Z,39.43
2022-08-29T02:07:38.140Z,39.74
2022-08-29T02:10:07.876Z,39.76
2022-08-29T02:12:36.741Z,39.81
2022-08-29T02:15:07.517Z,39.42
2022-08-29T02:17:35.640Z,39.65
2022-08-29T02:20:05.697Z,39.88
2022-08-29T02:22:35.938Z,39.76
2022-08-29T02:25:25.285Z,39.87
2022-08-29T02:27:53.453Z,39.83
2022-08-29T02:30:25.568Z,39.71
2022-08-29T02:32:54.069Z,39.68
2022-08-29T02:35:22.648Z,39.86
2022-08-29T02:37:52.150Z,39.60
2022-08-29T02:40:20.702Z,39.42
2022-08-29T02:42:59.512Z,39.55
2022-08-29T02:45:29.561Z,39.33
2022-08-29T02:47:57.750Z,39.46
2022-08-29T02:50:26.061Z,39.07
2022-08-29T02:52:54.239Z,39.52
2022-08-29T02:55:24.454Z,39.34
2022-08-29T02:57:53.508Z,39.18
2022-08-29T03:00:24.599Z,39.13
2022-08-29T03:02:54.304Z,39.28
2022-08-29T03:05:24.872Z,39.12
2022-08-29T03:07:53.293Z,39.33
2022-08-29T03:10:21.739Z,39.43
2022-08-29T03:12:50.825Z,39.33
2022-08-29T03:15:19.458Z,39.36
2022-08-29T03:17:47.956Z,38.95
2022-08-29T03:20:19.045Z,39.34
2022-08-29T03:22:47.711Z,39.17
2022-08-29T03:25:17.356Z,39.10
2022-08-29T03:27:45.372Z,39.37
2022-08-29T03:30:15.812Z,39.11
2022-08-29T03:32:43.831Z,39.40
2022-08-29T03:35:12.975Z,39.31
2022-08-29T03:37:42.609Z,39.33
2022-08-29T03:40:11.455Z,39.31
2022-08-29T03:42:40.077Z,39.55
2022-08-29T03:45:10.639Z,39.25
2022-08-29T03:47:38.624Z,39.47
2022-08-29T03:50:07.300Z,39.06
2022-08-29T03:52:35.457Z,39.08
2022-08-29T03:55:07.531Z,39.48
2022-08-29T03:57:35.593Z,39.29
2022-08-29T04:00:11.893Z,39.05
2022-08-29T04:02:41.002Z,39.31
2022-08-29T04:05:10.036Z,39.30
2022-08-29T04:07:47.202Z,39.31
2022-08-29T04:10:20.268Z,39.42
2022-08-29T04:12:51.292Z,39.15
2022-08-29T04:15:22.805Z,39.37
2022-08-29T04:17:54.396Z,39.32
2022-08-29T04:20:25.588Z,39.40
2022-08-29T04:22:54.558Z,39.26
2022-08-29T04:25:25.941Z,39.41
2022-08-29T04:27:54.241Z,39.05
2022-08-29T04:30:24.769Z,39.08
2022-08-29T04:32:53.248Z,39.58
2022-08-29T04:35:21.501Z,39.50
2022-08-29T04:37:49.821Z,39.46
2022-08-29T04:40:19.895Z,39.47
2022-08-29T04:42:49.568Z,39.58
2022-08-29T04:45:20.585Z,39.52
2022-08-29T04:47:48.553Z,39.55
2022-08-29T04:50:22.057Z,39.55
2022-08-29T04:52:50.818Z,39.96
2022-08-29T04:55:22.576Z,39.92
2022-08-29T04:57:57.359Z,39.53
2022-08-29T05:00:28.249Z,39.77
2022-08-29T05:02:56.573Z,39.74
2022-08-29T05:05:25.234Z,39.67
2022-08-29T05:07:53.811Z,40.05
2022-08-29T05:10:23.530Z,39.85
2022-08-29T05:12:51.582Z,39.77
2022-08-29T05:15:21.041Z,39.78
2022-08-29T05:17:49.213Z,39.52
2022-08-29T05:20:17.189Z,39.55
2022-08-29T05:22:45.163Z,39.72
2022-08-29T05:25:18.018Z,39.75
2022-08-29T05:27:47.013Z,39.66
2022-08-29T05:30:16.502Z,39.60
2022-08-29T05:33:04.550Z,39.61
2022-08-29T05:35:33.409Z,39.65
2022-08-29T05:38:07.161Z,39.45
2022-08-29T05:40:37.189Z,39.69
2022-08-29T05:43:05.425Z,39.68
2022-08-29T05:45:33.932Z,39.51
2022-08-29T05:48:07.797Z,39.63
2022-08-29T05:50:39.530Z,39.81
2022-08-29T05:53:07.529Z,39.73
2022-08-29T05:55:39.617Z,39.97
2022-08-29T05:58:08.433Z,39.87
2022-08-29T06:00:39.406Z,40.05
2022-08-29T06:03:10.507Z,39.91
2022-08-29T06:05:39.032Z,39.99
2022-08-29T06:08:07.872Z,39.93
2022-08-29T06:10:40.196Z,40.24
2022-08-29T06:13:08.229Z,40.14
2022-08-29T06:15:36.245Z,39.97
2022-08-29T06:18:05.104Z,40.42
2022-08-29T06:20:34.449Z,40.28
2022-08-29T06:23:02.409Z,40.53
2022-08-29T06:25:39.526Z,40.47
2022-08-29T06:28:08.264Z,40.37
2022-08-29T06:30:36.321Z,40.78
2022-08-29T06:33:04.353Z,40.78
2022-08-29T06:35:32.313Z,40.70
2022-08-29T06:38:01.671Z,40.79
2022-08-29T06:40:29.765Z,40.76
2022-08-29T06:42:57.797Z,40.60
2022-08-29T06:45:25.848Z,40.86
2022-08-29T06:47:53.845Z,40.75
2022-08-29T06:50:21.849Z,40.68
2022-08-29T06:52:49.852Z,40.63
2022-08-29T06:55:23.784Z,40.72
2022-08-29T06:57:52.260Z,40.93
2022-08-29T07:00:22.766Z,41.19
2022-08-29T07:02:52.513Z,41.08
2022-08-29T07:05:21.710Z,41.03
2022-08-29T07:07:50.220Z,40.95
2022-08-29T07:10:22.513Z,41.11
2022-08-29T07:12:51.713Z,41.09
2022-08-29T07:15:20.923Z,40.96
2022-08-29T07:17:49.377Z,41.34
2022-08-29T07:20:18.308Z,41.33
2022-08-29T07:22:51.140Z,41.39
2022-08-29T07:25:21.795Z,41.06
2022-08-29T07:27:53.552Z,41.41
2022-08-29T07:30:22.853Z,40.95
2022-08-29T07:32:50.904Z,41.35
2022-08-29T07:35:29.629Z,41.09
2022-08-29T07:38:01.175Z,41.43
2022-08-29T07:40:31.000Z,41.34
2022-08-29T07:42:59.025Z,41.48
2022-08-29T07:45:27.229Z,41.63
2022-08-29T07:47:55.233Z,41.47
2022-08-29T07:50:23.394Z,41.32
2022-08-29T07:52:52.571Z,41.34
2022-08-29T07:55:22.016Z,41.58
2022-08-29T07:57:53.398Z,41.40
2022-08-29T08:00:21.884Z,41.53
2022-08-29T08:02:50.014Z,41.75
2022-08-29T08:05:18.287Z,41.55
2022-08-29T08:07:47.346Z,41.37
2022-08-29T08:10:17.128Z,41.71
2022-08-29T08:12:45.489Z,41.54
2022-08-29T08:15:15.793Z,41.67
2022-08-29T08:17:44.443Z,41.17
2022-08-29T08:20:14.048Z,41.13
2022-08-29T08:22:42.009Z,41.26
2022-08-29T08:25:10.680Z,41.48
2022-08-29T08:27:43.620Z,41.32
2022-08-29T08:30:14.629Z,41.17
2022-08-29T08:32:46.464Z,41.47
2022-08-29T08:35:16.327Z,40.96
2022-08-29T08:37:44.558Z,41.46
2022-08-29T08:40:21.147Z,41.28
2022-08-29T08:42:50.702Z,41.29
2022-08-29T08:45:22.973Z,41.00
2022-08-29T08:47:54.205Z,41.07
2022-08-29T08:50:26.414Z,41.10
2022-08-29T08:52:59.781Z,41.14
2022-08-29T08:55:35.973Z,41.35
2022-08-29T08:58:11.377Z,41.13
2022-08-29T09:00:46.220Z,41.40
2022-08-29T09:03:51.849Z,41.08
2022-08-29T09:06:31.658Z,41.81
2022-08-29T09:09:10.355Z,41.52
2022-08-29T09:11:51.508Z,41.77
2022-08-29T09:14:33.713Z,41.28
2022-08-29T09:17:04.385Z,42.01
2022-08-29T09:19:32.896Z,41.65
2022-08-29T09:22:10.595Z,41.75
2022-08-29T09:24:45.493Z,41.97
2022-08-29T09:27:19.425Z,41.69
2022-08-29T09:29:49.705Z,42.19
2022-08-29T09:32:22.463Z,41.85
2022-08-29T09:35:07.885Z,41.95
2022-08-29T09:37:37.384Z,41.79
2022-08-29T09:40:09.894Z,42.20
2022-08-29T09:42:42.640Z,41.97
2022-08-29T09:45:25.000Z,41.69
2022-08-29T09:48:10.177Z,42.12
2022-08-29T09:50:38.397Z,41.83
2022-08-29T09:53:08.193Z,41.68
2022-08-29T09:55:51.798Z,42.08
2022-08-29T09:58:31.149Z,41.65
2022-08-29T10:01:03.399Z,41.85
2022-08-29T10:03:41.162Z,42.04
2022-08-29T10:06:13.965Z,42.09
2022-08-29T10:08:43.856Z,41.78
2022-08-29T10:11:22.957Z,41.47
2022-08-29T10:13:54.513Z,41.92
2022-08-29T10:16:33.526Z,41.55
2022-08-29T10:19:06.076Z,41.67
2022-08-29T10:21:39.424Z,41.78
2022-08-29T10:24:19.708Z,41.13
2022-08-29T10:26:57.953Z,41.48
2022-08-29T10:29:41.437Z,41.49
2022-08-29T10:32:21.677Z,41.96
2022-08-29T10:35:05.234Z,41.42
2022-08-29T10:37:45.849Z,41.83
2022-08-29T10:40:21.627Z,41.70
2022-08-29T10:42:53.545Z,41.83
2022-08-29T10:45:36.251Z,42.20
2022-08-29T10:48:10.369Z,41.91
2022-08-29T10:50:59.683Z,42.00
2022-08-29T10:53:34.537Z,41.97
2022-08-29T10:56:08.218Z,41.92
2022-08-29T10:58:48.848Z,42.28
2022-08-29T11:01:22.391Z,42.19
2022-08-29T11:04:02.157Z,42.06
2022-08-29T11:09:14.808Z,41.59
2022-08-29T11:12:01.968Z,41.60
2022-08-29T11:14:36.453Z,41.67
2022-08-29T11:17:08.484Z,41.61
2022-08-29T11:19:46.960Z,41.83
2022-08-29T11:22:21.902Z,41.94
2022-08-29T11:24:58.252Z,41.76
2022-08-29T11:27:34.246Z,41.85
2022-08-29T11:30:06.837Z,41.87
2022-08-29T11:32:45.452Z,41.91
2022-08-29T11:35:21.562Z,41.75
2022-08-29T11:38:24.851Z,41.92
2022-08-29T11:44:03.978Z,41.93
2022-08-29T11:46:39.076Z,41.98
2022-08-29T11:49:42.100Z,41.69
2022-08-29T11:52:26.580Z,41.76
2022-08-29T11:55:28.358Z,41.85
2022-08-29T11:58:04.181Z,41.63
2022-08-29T12:00:51.571Z,42.05
2022-08-29T12:03:53.805Z,41.67
2022-08-29T12:06:48.964Z,41.66
2022-08-29T12:09:27.809Z,41.71
2022-08-29T12:12:37.423Z,41.60
2022-08-29T12:15:47.125Z,41.95
2022-08-29T12:18:50.774Z,42.05
2022-08-29T12:21:45.715Z,42.04
2022-08-29T12:24:43.139Z,41.51
2022-08-29T12:27:56.351Z,41.99
2022-08-29T12:30:24.420Z,42.20
2022-08-29T12:33:07.910Z,42.12
2022-08-29T12:36:07.499Z,41.91
2022-08-29T12:38:42.417Z,41.67
2022-08-29T12:41:34.817Z,41.90
2022-08-29T12:44:07.486Z,41.92
2022-08-29T12:46:40.405Z,41.79
2022-08-29T12:49:21.074Z,41.48
2022-08-29T12:51:51.937Z,41.34
2022-08-29T12:54:32.425Z,41.35
2022-08-29T12:57:02.623Z,41.78
2022-08-29T12:59:32.018Z,41.63
2022-08-29T13:02:00.595Z,41.39
2022-08-29T13:04:32.561Z,41.46
2022-08-29T13:07:03.873Z,41.52
2022-08-29T13:09:34.614Z,41.64
2022-08-29T13:12:15.777Z,41.60
2022-08-29T13:14:57.562Z,41.92
2022-08-29T13:17:28.856Z,42.14
2022-08-29T13:20:34.237Z,41.71
2022-08-29T13:23:07.300Z,41.73
2022-08-29T13:25:37.460Z,41.98
2022-08-29T13:28:05.917Z,41.72
2022-08-29T13:30:35.276Z,42.21
2022-08-29T13:33:05.773Z,41.86
2022-08-29T13:35:35.905Z,41.76
2022-08-29T13:38:18.298Z,41.60
2022-08-29T13:40:49.408Z,41.68
2022-08-29T13:43:35.008Z,41.41
2022-08-29T13:46:18.177Z,42.06
2022-08-29T13:48:46.517Z,42.04
2022-08-29T13:51:14.518Z,42.15
2022-08-29T13:53:45.607Z,41.91
2022-08-29T13:56:22.404Z,41.73
2022-08-29T13:58:51.303Z,41.73
2022-08-29T14:01:30.313Z,41.70
2022-08-29T14:04:15.391Z,42.15
2022-08-29T14:06:48.072Z,41.77
2022-08-29T14:09:20.923Z,42.06
2022-08-29T14:11:49.328Z,42.21
2022-08-29T14:14:17.329Z,42.05
2022-08-29T14:16:46.782Z,41.80
2022-08-29T14:19:14.702Z,41.68
2022-08-29T14:21:42.688Z,41.56
2022-08-29T14:24:10.648Z,42.07
2022-08-29T14:26:39.029Z,41.91
2022-08-29T14:29:07.865Z,41.73
2022-08-29T14:31:36.003Z,42.00
2022-08-29T14:34:05.367Z,41.49
2022-08-29T14:36:34.749Z,41.45
2022-08-29T14:39:07.013Z,41.55
2022-08-29T14:41:35.098Z,41.91
2022-08-29T14:44:03.193Z,41.54
2022-08-29T14:46:31.507Z,41.96
2022-08-29T14:48:59.493Z,41.91
2022-08-29T14:51:29.008Z,41.70
2022-08-29T14:53:57.036Z,41.84
2022-08-29T14:56:47.046Z,41.72
2022-08-29T14:59:15.975Z,41.45
2022-08-29T15:01:44.073Z,41.34
2022-08-29T15:04:12.114Z,41.44
2022-08-29T15:06:43.502Z,41.69
2022-08-29T15:09:11.577Z,41.25
2022-08-29T15:11:39.653Z,41.39
2022-08-29T15:14:08.839Z,41.75
2022-08-29T15:16:37.272Z,41.71
2022-08-29T15:21:54.895Z,41.93
2022-08-29T15:24:25.412Z,41.61
2022-08-29T15:26:58.106Z,41.86
2022-08-29T15:29:26.513Z,41.53
2022-08-29T15:31:57.181Z,41.43
2022-08-29T15:34:25.978Z,41.57
2022-08-29T15:36:56.814Z,41.60
2022-08-29T15:39:27.304Z,41.70
2022-08-29T15:41:55.514Z,41.56
2022-08-29T15:44:23.481Z,41.64
2022-08-29T15:46:53.395Z,41.79
2022-08-29T15:49:23.965Z,41.74
2022-08-29T15:51:53.340Z,41.36
2022-08-29T15:54:23.211Z,41.64
2022-08-29T15:56:52.078Z,41.37
2022-08-29T15:59:35.753Z,41.24
2022-08-29T16:02:10.335Z,41.09
2022-08-29T16:04:39.761Z,41.24
2022-08-29T16:07:07.748Z,41.57
2022-08-29T16:09:37.080Z,41.08
2022-08-29T16:12:05.812Z,41.25
2022-08-29T16:17:23.148Z,41.55
2022-08-29T16:19:51.128Z,41.05
2022-08-29T16:22:19.441Z,41.34
2022-08-29T16:24:48.795Z,41.31
2022-08-29T16:27:17.304Z,41.38
2022-08-29T16:29:45.372Z,41.49
2022-08-29T16:32:13.453Z,40.97
2022-08-29T16:34:41.444Z,41.08
2022-08-29T16:37:09.444Z,41.06
2022-08-29T16:39:37.606Z,40.89
2022-08-29T16:42:07.265Z,41.37
2022-08-29T16:44:35.236Z,40.77
2022-08-29T16:47:03.204Z,41.14
2022-08-29T16:49:31.165Z,41.11
2022-08-29T16:51:59.348Z,41.17
2022-08-29T16:54:28.599Z,40.72
2022-08-29T16:56:57.050Z,41.06
2022-08-29T16:59:26.807Z,40.72
2022-08-29T17:01:55.711Z,40.62
2022-08-29T17:04:25.924Z,40.41
2022-08-29T17:06:54.240Z,40.90
2022-08-29T17:09:23.445Z,40.66
2022-08-29T17:11:51.184Z,40.82
2022-08-29T17:14:19.267Z,40.59
2022-08-29T17:16:51.090Z,40.70
2022-08-29T17:19:19.505Z,41.11
2022-08-29T17:21:47.874Z,40.63
2022-08-29T17:24:16.399Z,40.65
2022-08-29T17:26:47.144Z,40.52
2022-08-29T17:29:16.241Z,40.54
2022-08-29T17:31:44.752Z,40.67
2022-08-29T17:34:14.430Z,41.00
2022-08-29T17:36:44.210Z,40.99
2022-08-29T17:39:13.339Z,40.88
2022-08-29T17:41:41.639Z,40.35
2022-08-29T17:44:13.003Z,40.77
2022-08-29T17:46:40.958Z,40.33
2022-08-29T17:49:10.466Z,40.73
2022-08-29T17:51:40.680Z,40.72
2022-08-29T17:54:12.515Z,40.28
2022-08-29T17:56:44.878Z,40.77
2022-08-29T17:59:13.055Z,40.45
2022-08-29T18:01:41.451Z,40.37
2022-08-29T18:04:09.729Z,40.39
2022-08-29T18:06:39.650Z,40.69
2022-08-29T18:09:08.919Z,40.23
2022-08-29T18:11:38.823Z,40.16
2022-08-29T18:14:06.876Z,40.23
2022-08-29T18:16:34.851Z,40.57
2022-08-29T18:19:03.222Z,40.04
2022-08-29T18:21:31.609Z,40.45
2022-08-29T18:24:01.128Z,40.41
2022-08-29T18:26:29.540Z,40.35
2022-08-29T18:28:57.620Z,39.98
2022-08-29T18:31:25.867Z,40.17
2022-08-29T18:34:01.713Z,40.51
2022-08-29T18:36:30.646Z,40.13
2022-08-29T18:39:00.318Z,40.43
2022-08-29T18:41:28.978Z,40.31
2022-08-29T18:43:58.970Z,40.39
2022-08-29T18:46:27.331Z,40.05
2022-08-29T18:48:55.468Z,40.36
2022-08-29T18:51:24.195Z,39.83
2022-08-29T18:53:52.206Z,40.39
2022-08-29T18:56:21.929Z,40.33
2022-08-29T18:58:54.540Z,40.37
2022-08-29T19:01:28.352Z,40.37
2022-08-29T19:03:59.205Z,40.25
2022-08-29T19:06:28.182Z,39.99
2022-08-29T19:08:57.544Z,40.32
2022-08-29T19:11:28.303Z,40.08
2022-08-29T19:13:56.666Z,39.89
2022-08-29T19:16:24.869Z,40.20
2022-08-29T19:18:54.244Z,39.91
2022-08-29T19:21:21.508Z,39.91
2022-08-29T19:23:52.795Z,39.96
2022-08-29T19:26:24.421Z,40.21
2022-08-29T19:28:56.634Z,40.06
2022-08-29T19:31:29.231Z,39.68
2022-08-29T19:33:59.583Z,40.16
2022-08-29T19:36:28.122Z,39.75
2022-08-29T19:38:57.253Z,39.77
2022-08-29T19:41:25.934Z,39.68
2022-08-29T19:43:55.309Z,39.71
2022-08-29T19:46:24.596Z,39.90
2022-08-29T19:48:52.997Z,39.87
2022-08-29T19:51:24.505Z,40.21
2022-08-29T19:53:53.905Z,39.91
2022-08-29T19:56:23.129Z,40.14
2022-08-29T19:58:51.238Z,39.89
2022-08-29T20:01:20.783Z,39.83
2022-08-29T20:03:48.804Z,40.06
2022-08-29T20:06:16.756Z,40.17
2022-08-29T20:08:46.742Z,39.62
2022-08-29T20:11:19.176Z,39.86
2022-08-29T20:13:50.656Z,39.70
2022-08-29T20:16:24.522Z,40.16
2022-08-29T20:18:53.819Z,39.86
2022-08-29T20:21:23.604Z,40.12
2022-08-29T20:23:57.808Z,40.23
2022-08-29T20:26:29.338Z,39.83
2022-08-29T20:28:58.452Z,40.08
2022-08-29T20:31:28.662Z,40.24
2022-08-29T20:33:57.243Z,39.82
2022-08-29T20:36:42.978Z,39.76
2022-08-29T20:39:13.014Z,39.89
2022-08-29T20:41:41.022Z,39.94
2022-08-29T20:44:10.948Z,40.27
2022-08-29T20:46:41.443Z,40.26
2022-08-29T20:49:10.025Z,39.88
2022-08-29T20:51:39.021Z,39.81
2022-08-29T20:54:07.705Z,40.02
2022-08-29T20:56:35.669Z,39.90
2022-08-29T20:59:03.789Z,39.97
2022-08-29T21:01:31.852Z,40.31
2022-08-29T21:04:20.996Z,40.13
2022-08-29T21:06:49.844Z,40.29
2022-08-29T21:09:17.800Z,40.22
2022-08-29T21:11:45.789Z,39.84
2022-08-29T21:14:14.056Z,40.30
2022-08-29T21:16:42.048Z,39.80
2022-08-29T21:19:11.895Z,40.21
2022-08-29T21:21:41.545Z,40.02
2022-08-29T21:24:10.465Z,39.82
2022-08-29T21:26:39.434Z,40.13
2022-08-29T21:29:08.725Z,39.99
2022-08-29T21:31:37.225Z,39.81
2022-08-29T21:34:07.219Z,39.55
2022-08-29T21:36:37.369Z,39.99
2022-08-29T21:39:07.412Z,39.88
2022-08-29T21:41:39.491Z,39.81
2022-08-29T21:44:08.206Z,39.58
2022-08-29T21:46:38.270Z,39.53
2022-08-29T21:49:08.245Z,39.83
2022-08-29T21:51:38.484Z,39.55
2022-08-29T21:54:11.468Z,39.75
2022-08-29T21:56:41.524Z,39.50
2022-08-29T21:59:09.608Z,39.18
2022-08-29T22:01:39.561Z,39.26
2022-08-29T22:04:10.856Z,39.32
2022-08-29T22:06:42.592Z,39.54
2022-08-29T22:09:13.334Z,39.79
2022-08-29T22:11:42.598Z,39.44
2022-08-29T22:14:11.712Z,39.42
2022-08-29T22:16:39.416Z,39.30
2022-08-29T22:19:09.658Z,39.25
2022-08-29T22:21:42.341Z,39.33
2022-08-29T22:24:10.957Z,39.21
2022-08-29T22:26:40.571Z,39.49
2022-08-29T22:29:11.763Z,39.16
2022-08-29T22:31:42.346Z,39.35
2022-08-29T22:34:10.890Z,39.47
2022-08-29T22:36:40.425Z,39.14
2022-08-29T22:39:08.945Z,39.31
2022-08-29T22:41:37.014Z,39.22
2022-08-29T22:44:47.122Z,39.42
2022-08-29T22:46:54.824Z,39.09
2022-08-29T22:49:33.019Z,39.59
2022-08-29T22:52:03.261Z,39.15
2022-08-29T22:54:37.833Z,39.48
2022-08-29T22:57:09.057Z,39.01
2022-08-29T22:59:38.129Z,39.52
2022-08-29T23:02:06.987Z,39.32
2022-08-29T23:04:35.465Z,39.39
2022-08-29T23:07:05.912Z,38.87
2022-08-29T23:09:35.632Z,39.30
2022-08-29T23:12:05.426Z,38.83
2022-08-29T23:14:35.819Z,39.26
2022-08-29T23:17:04.210Z,39.20
2022-08-29T23:19:32.373Z,38.74
2022-08-29T23:22:02.279Z,38.79
2022-08-29T23:24:32.092Z,38.76
2022-08-29T23:27:00.818Z,38.81
2022-08-29T23:29:30.914Z,38.59
2022-08-29T23:31:58.930Z,38.85
2022-08-29T23:34:26.868Z,38.65
2022-08-29T23:36:55.322Z,39.12
2022-08-29T23:39:23.355Z,38.81
2022-08-29T23:41:52.830Z,39.17
2022-08-29T23:44:20.847Z,39.22
2022-08-29T23:46:48.920Z,38.55
2022-08-29T23:49:16.909Z,38.58
2022-08-29T23:51:44.898Z,38.75
2022-08-29T23:54:12.877Z,38.61
2022-08-29T23:56:40.950Z,39.01
2022-08-29T23:59:30.284Z,38.57
